sensor_id;sensor_type;location;lat;lon;timestamp;pressure;altitude;pressure_sealevel;temperature;humidity
47726;BME280;33483;48.294;16.388;2023-08-31T00:01:07;98956.72;;;16.08;100.00
47726;BME280;33483;48.294;16.388;2023-08-31T00:03:33;98955.84;;;16.05;100.00
47726;BME280;33483;48.294;16.388;2023-08-31T00:06:02;98961.09;;;16.01;100.00
47726;BME280;33483;48.294;16.388;2023-08-31T00:08:30;98965.53;;;16.04;100.00
47726;BME280;33483;48.294;16.388;2023-08-31T00:10:57;98958.06;;;16.07;100.00
47726;BME280;33483;48.294;16.388;2023-08-31T00:13:25;98968.41;;;16.14;100.00
47726;BME280;33483;48.294;16.388;2023-08-31T00:15:55;98968.41;;;16.14;100.00
47726;BME280;33483;48.294;16.388;2023-08-31T00:18:26;98975.88;;;16.11;100.00
47726;BME280;33483;48.294;16.388;2023-08-31T00:20:53;98965.91;;;16.18;100.00
47726;BME280;33483;48.294;16.388;2023-08-31T00:23:22;98975.88;;;16.11;100.00
47726;BME280;33483;48.294;16.388;2023-08-31T00:25:50;98979.25;;;16.10;100.00
47726;BME280;33483;48.294;16.388;2023-08-31T00:28:21;98977.78;;;16.09;100.00
47726;BME280;33483;48.294;16.388;2023-08-31T00:30:51;98983.25;;;16.16;100.00
47726;BME280;33483;48.294;16.388;2023-08-31T00:33:18;98981.78;;;16.15;100.00
47726;BME280;33483;48.294;16.388;2023-08-31T00:35:46;98994.72;;;16.11;100.00
47726;BME280;33483;48.294;16.388;2023-08-31T00:38:13;98990.09;;;16.06;100.00
47726;BME280;33483;48.294;16.388;2023-08-31T00:40:42;98983.03;;;16.05;100.00
47726;BME280;33483;48.294;16.388;2023-08-31T00:43:15;98985.38;;;15.99;100.00
47726;BME280;33483;48.294;16.388;2023-08-31T00:45:43;98992.84;;;15.96;100.00
47726;BME280;33483;48.294;16.388;2023-08-31T00:48:14;98990.81;;;15.97;100.00
47726;BME280;33483;48.294;16.388;2023-08-31T00:50:42;98989.41;;;15.88;100.00
47726;BME280;33483;48.294;16.388;2023-08-31T00:53:09;98988.50;;;15.86;100.00
47726;BME280;33483;48.294;16.388;2023-08-31T00:55:38;98988.50;;;15.86;100.00
47726;BME280;33483;48.294;16.388;2023-08-31T00:58:08;98989.50;;;15.81;100.00
47726;BME280;33483;48.294;16.388;2023-08-31T01:03:35;98996.25;;;15.77;100.00
47726;BME280;33483;48.294;16.388;2023-08-31T01:06:25;98993.13;;;15.73;100.00
47726;BME280;33483;48.294;16.388;2023-08-31T01:11:44;98998.47;;;15.62;100.00
47726;BME280;33483;48.294;16.388;2023-08-31T01:14:10;98995.59;;;15.52;100.00
47726;BME280;33483;48.294;16.388;2023-08-31T01:16:39;98996.41;;;15.45;100.00
47726;BME280;33483;48.294;16.388;2023-08-31T01:19:11;98994.97;;;15.37;100.00
47726;BME280;33483;48.294;16.388;2023-08-31T01:21:42;98990.38;;;15.32;100.00
47726;BME280;33483;48.294;16.388;2023-08-31T01:24:11;98996.78;;;15.25;100.00
47726;BME280;33483;48.294;16.388;2023-08-31T01:26:39;98995.44;;;15.26;100.00
47726;BME280;33483;48.294;16.388;2023-08-31T01:29:06;98998.47;;;15.20;100.00
47726;BME280;33483;48.294;16.388;2023-08-31T01:31:41;98999.28;;;15.13;100.00
47726;BME280;33483;48.294;16.388;2023-08-31T01:34:09;98996.00;;;15.07;100.00
47726;BME280;33483;48.294;16.388;2023-08-31T01:36:39;99001.25;;;15.03;100.00
47726;BME280;33483;48.294;16.388;2023-08-31T01:39:12;99000.75;;;14.97;100.00
47726;BME280;33483;48.294;16.388;2023-08-31T01:41:46;99002.44;;;14.93;100.00
47726;BME280;33483;48.294;16.388;2023-08-31T01:44:15;98998.59;;;14.88;100.00
47726;BME280;33483;48.294;16.388;2023-08-31T01:46:51;99001.38;;;14.88;100.00
47726;BME280;33483;48.294;16.388;2023-08-31T01:49:19;98999.75;;;14.85;100.00
47726;BME280;33483;48.294;16.388;2023-08-31T01:51:49;99005.72;;;14.82;100.00
47726;BME280;33483;48.294;16.388;2023-08-31T01:54:18;99010.56;;;14.81;100.00
47726;BME280;33483;48.294;16.388;2023-08-31T01:56:45;99009.47;;;14.77;100.00
47726;BME280;33483;48.294;16.388;2023-08-31T01:59:13;99007.81;;;14.74;100.00
47726;BME280;33483;48.294;16.388;2023-08-31T02:01:40;99018.25;;;14.73;100.00
47726;BME280;33483;48.294;16.388;2023-08-31T02:04:07;99012.50;;;14.71;100.00
47726;BME280;33483;48.294;16.388;2023-08-31T02:06:34;99020.50;;;14.67;100.00
47726;BME280;33483;48.294;16.388;2023-08-31T02:09:01;99021.66;;;14.64;100.00
47726;BME280;33483;48.294;16.388;2023-08-31T02:11:28;99018.69;;;14.62;100.00
47726;BME280;33483;48.294;16.388;2023-08-31T02:13:55;99026.69;;;14.58;100.00
47726;BME280;33483;48.294;16.388;2023-08-31T02:16:22;99012.75;;;14.58;100.00
47726;BME280;33483;48.294;16.388;2023-08-31T02:18:49;99016.28;;;14.58;100.00
47726;BME280;33483;48.294;16.388;2023-08-31T02:21:17;99010.72;;;14.58;100.00
47726;BME280;33483;48.294;16.388;2023-08-31T02:23:44;99011.28;;;14.57;100.00
47726;BME280;33483;48.294;16.388;2023-08-31T02:26:11;99019.66;;;14.57;100.00
47726;BME280;33483;48.294;16.388;2023-08-31T02:28:38;99021.69;;;14.56;100.00
47726;BME280;33483;48.294;16.388;2023-08-31T02:31:05;99024.31;;;14.54;100.00
47726;BME280;33483;48.294;16.388;2023-08-31T02:33:32;99015.38;;;14.56;100.00
47726;BME280;33483;48.294;16.388;2023-08-31T02:35:59;99018.34;;;14.58;100.00
47726;BME280;33483;48.294;16.388;2023-08-31T02:38:29;99022.03;;;14.60;100.00
47726;BME280;33483;48.294;16.388;2023-08-31T02:40:59;99019.25;;;14.60;100.00
47726;BME280;33483;48.294;16.388;2023-08-31T02:43:26;99021.81;;;14.66;100.00
47726;BME280;33483;48.294;16.388;2023-08-31T02:46:00;99018.47;;;14.68;100.00
47726;BME280;33483;48.294;16.388;2023-08-31T02:48:28;99014.94;;;14.67;100.00
47726;BME280;33483;48.294;16.388;2023-08-31T02:50:57;99013.59;;;14.68;100.00
47726;BME280;33483;48.294;16.388;2023-08-31T02:53:27;99024.22;;;14.70;100.00
47726;BME280;33483;48.294;16.388;2023-08-31T02:55:55;99025.34;;;14.66;100.00
47726;BME280;33483;48.294;16.388;2023-08-31T02:58:22;99026.09;;;14.67;100.00
47726;BME280;33483;48.294;16.388;2023-08-31T03:00:49;99031.66;;;14.67;100.00
47726;BME280;33483;48.294;16.388;2023-08-31T03:03:17;99030.19;;;14.66;100.00
47726;BME280;33483;48.294;16.388;2023-08-31T03:05:44;99028.53;;;14.63;100.00
47726;BME280;33483;48.294;16.388;2023-08-31T03:08:11;99026.47;;;14.63;100.00
47726;BME280;33483;48.294;16.388;2023-08-31T03:10:39;99024.25;;;14.62;100.00
47726;BME280;33483;48.294;16.388;2023-08-31T03:13:06;99030.97;;;14.59;100.00
47726;BME280;33483;48.294;16.388;2023-08-31T03:15:33;99028.13;;;14.66;100.00
47726;BME280;33483;48.294;16.388;2023-08-31T03:18:03;99024.22;;;14.70;100.00
47726;BME280;33483;48.294;16.388;2023-08-31T03:20:30;99032.00;;;14.71;100.00
47726;BME280;33483;48.294;16.388;2023-08-31T03:23:01;99030.19;;;14.66;100.00
47726;BME280;33483;48.294;16.388;2023-08-31T03:25:31;99032.97;;;14.66;100.00
47726;BME280;33483;48.294;16.388;2023-08-31T03:27:58;99028.69;;;14.65;100.00
47726;BME280;33483;48.294;16.388;2023-08-31T03:30:26;99036.16;;;14.62;100.00
47726;BME280;33483;48.294;16.388;2023-08-31T03:32:52;99027.94;;;14.64;100.00
47726;BME280;33483;48.294;16.388;2023-08-31T03:35:21;99034.50;;;14.59;100.00
47726;BME280;33483;48.294;16.388;2023-08-31T03:37:54;99037.63;;;14.63;100.00
47726;BME280;33483;48.294;16.388;2023-08-31T03:40:22;99030.75;;;14.64;100.00
47726;BME280;33483;48.294;16.388;2023-08-31T03:42:52;99030.19;;;14.66;100.00
47726;BME280;33483;48.294;16.388;2023-08-31T03:45:20;99031.31;;;14.63;100.00
47726;BME280;33483;48.294;16.388;2023-08-31T03:47:47;99029.44;;;14.65;100.00
47726;BME280;33483;48.294;16.388;2023-08-31T03:50:15;99032.81;;;14.64;100.00
47726;BME280;33483;48.294;16.388;2023-08-31T03:52:42;99033.13;;;14.68;100.00
47726;BME280;33483;48.294;16.388;2023-08-31T03:55:09;99024.44;;;14.64;100.00
47726;BME280;33483;48.294;16.388;2023-08-31T03:57:36;99036.84;;;14.71;100.00
47726;BME280;33483;48.294;16.388;2023-08-31T04:00:12;99034.59;;;14.77;100.00
47726;BME280;33483;48.294;16.388;2023-08-31T04:02:41;99039.78;;;14.80;100.00
47726;BME280;33483;48.294;16.388;2023-08-31T04:05:10;99041.06;;;14.79;100.00
47726;BME280;33483;48.294;16.388;2023-08-31T04:07:37;99038.44;;;14.81;100.00
47726;BME280;33483;48.294;16.388;2023-08-31T04:10:05;99038.84;;;14.78;100.00
47726;BME280;33483;48.294;16.388;2023-08-31T04:12:34;99042.31;;;14.86;100.00
47726;BME280;33483;48.294;16.388;2023-08-31T04:15:04;99039.53;;;14.86;100.00
47726;BME280;33483;48.294;16.388;2023-08-31T04:17:31;99047.16;;;14.85;100.00
47726;BME280;33483;48.294;16.388;2023-08-31T04:19:59;99041.72;;;14.87;100.00
47726;BME280;33483;48.294;16.388;2023-08-31T04:22:26;99045.84;;;14.86;100.00
47726;BME280;33483;48.294;16.388;2023-08-31T04:24:58;99049.97;;;14.85;100.00
47726;BME280;33483;48.294;16.388;2023-08-31T04:27:26;99054.22;;;14.86;100.00
47726;BME280;33483;48.294;16.388;2023-08-31T04:29:54;99050.84;;;14.88;100.00
47726;BME280;33483;48.294;16.388;2023-08-31T04:32:24;99056.84;;;14.84;100.00
47726;BME280;33483;48.294;16.388;2023-08-31T04:34:53;99058.31;;;14.85;100.00
47726;BME280;33483;48.294;16.388;2023-08-31T04:37:23;99065.94;;;14.85;100.00
47726;BME280;33483;48.294;16.388;2023-08-31T04:39:50;99069.50;;;14.85;100.00
47726;BME280;33483;48.294;16.388;2023-08-31T04:42:17;99069.88;;;14.82;100.00
47726;BME280;33483;48.294;16.388;2023-08-31T04:44:45;99073.00;;;14.86;100.00
47726;BME280;33483;48.294;16.388;2023-08-31T04:47:17;99076.72;;;14.88;100.00
47726;BME280;33483;48.294;16.388;2023-08-31T04:49:44;99075.06;;;14.85;100.00
47726;BME280;33483;48.294;16.388;2023-08-31T04:52:11;99073.41;;;14.82;100.00
47726;BME280;33483;48.294;16.388;2023-08-31T04:54:38;99075.09;;;14.78;100.00
47726;BME280;33483;48.294;16.388;2023-08-31T04:57:08;99084.81;;;14.77;100.00
47726;BME280;33483;48.294;16.388;2023-08-31T04:59:38;99086.66;;;14.74;100.00
47726;BME280;33483;48.294;16.388;2023-08-31T05:02:04;99091.84;;;14.78;100.00
47726;BME280;33483;48.294;16.388;2023-08-31T05:04:37;99087.91;;;14.81;100.00
47726;BME280;33483;48.294;16.388;2023-08-31T05:07:04;99102.63;;;14.81;100.00
47726;BME280;33483;48.294;16.388;2023-08-31T05:09:31;99107.81;;;14.85;100.00
47726;BME280;33483;48.294;16.388;2023-08-31T05:12:02;99099.03;;;14.88;100.00
47726;BME280;33483;48.294;16.388;2023-08-31T05:14:30;99109.22;;;14.93;100.00
47726;BME280;33483;48.294;16.388;2023-08-31T05:16:59;99112.38;;;14.97;100.00
47726;BME280;33483;48.294;16.388;2023-08-31T05:19:29;99105.81;;;15.02;100.00
47726;BME280;33483;48.294;16.388;2023-08-31T05:21:56;99111.75;;;15.06;100.00
47726;BME280;33483;48.294;16.388;2023-08-31T05:24:23;99113.59;;;15.11;100.00
47726;BME280;33483;48.294;16.388;2023-08-31T05:26:50;99128.38;;;15.21;100.00
47726;BME280;33483;48.294;16.388;2023-08-31T05:29:18;99133.19;;;15.28;100.00
47726;BME280;33483;48.294;16.388;2023-08-31T05:31:45;99132.91;;;15.41;100.00
47726;BME280;33483;48.294;16.388;2023-08-31T05:34:20;99136.16;;;15.55;100.00
47726;BME280;33483;48.294;16.388;2023-08-31T05:36:47;99150.16;;;15.72;100.00
47726;BME280;33483;48.294;16.388;2023-08-31T05:39:15;99154.31;;;15.88;100.00
47726;BME280;33483;48.294;16.388;2023-08-31T05:41:45;99158.75;;;16.08;100.00
47726;BME280;33483;48.294;16.388;2023-08-31T05:44:13;99150.47;;;16.18;100.00
47726;BME280;33483;48.294;16.388;2023-08-31T05:46:40;99149.94;;;16.29;100.00
47726;BME280;33483;48.294;16.388;2023-08-31T05:49:08;99149.44;;;16.57;100.00
47726;BME280;33483;48.294;16.388;2023-08-31T05:51:35;99161.38;;;17.01;100.00
47726;BME280;33483;48.294;16.388;2023-08-31T05:54:02;99160.13;;;17.48;100.00
47726;BME280;33483;48.294;16.388;2023-08-31T05:56:30;99161.97;;;17.72;100.00
47726;BME280;33483;48.294;16.388;2023-08-31T05:58:57;99164.06;;;17.81;100.00
47726;BME280;33483;48.294;16.388;2023-08-31T06:01:24;99167.63;;;18.10;100.00
47726;BME280;33483;48.294;16.388;2023-08-31T06:03:52;99170.81;;;18.43;100.00
47726;BME280;33483;48.294;16.388;2023-08-31T06:06:21;99167.53;;;18.65;100.00
47726;BME280;33483;48.294;16.388;2023-08-31T06:08:49;99167.66;;;18.67;100.00
47726;BME280;33483;48.294;16.388;2023-08-31T06:11:16;99170.13;;;18.92;100.00
47726;BME280;33483;48.294;16.388;2023-08-31T06:13:46;99171.19;;;18.96;100.00
47726;BME280;33483;48.294;16.388;2023-08-31T06:16:13;99178.56;;;19.01;100.00
47726;BME280;33483;48.294;16.388;2023-08-31T06:18:43;99176.34;;;19.00;100.00
47726;BME280;33483;48.294;16.388;2023-08-31T06:21:10;99185.81;;;18.76;100.00
47726;BME280;33483;48.294;16.388;2023-08-31T06:23:37;99185.97;;;18.87;100.00
47726;BME280;33483;48.294;16.388;2023-08-31T06:26:04;99189.25;;;18.55;100.00
47726;BME280;33483;48.294;16.388;2023-08-31T06:28:31;99183.50;;;18.44;100.00
47726;BME280;33483;48.294;16.388;2023-08-31T06:30:59;99187.75;;;18.35;100.00
47726;BME280;33483;48.294;16.388;2023-08-31T06:33:26;99188.19;;;18.32;100.00
47726;BME280;33483;48.294;16.388;2023-08-31T06:35:53;99187.66;;;18.43;100.00
47726;BME280;33483;48.294;16.388;2023-08-31T06:38:20;99187.63;;;18.62;100.00
47726;BME280;33483;48.294;16.388;2023-08-31T06:40:47;99184.94;;;18.83;100.00
47726;BME280;33483;48.294;16.388;2023-08-31T06:43:17;99193.34;;;18.83;100.00
47726;BME280;33483;48.294;16.388;2023-08-31T06:45:47;99180.31;;;19.06;100.00
47726;BME280;33483;48.294;16.388;2023-08-31T06:48:14;99191.31;;;19.43;100.00
47726;BME280;33483;48.294;16.388;2023-08-31T06:50:41;99194.50;;;19.58;100.00
47726;BME280;33483;48.294;16.388;2023-08-31T06:53:09;99194.69;;;20.87;97.43
47726;BME280;33483;48.294;16.388;2023-08-31T06:55:36;99225.41;;;22.91;74.99
47726;BME280;33483;48.294;16.388;2023-08-31T06:58:04;99221.25;;;23.96;65.07
47726;BME280;33483;48.294;16.388;2023-08-31T07:00:32;99229.50;;;22.76;71.91
47726;BME280;33483;48.294;16.388;2023-08-31T07:03:02;99221.59;;;22.61;71.42
47726;BME280;33483;48.294;16.388;2023-08-31T07:05:41;99219.16;;;22.56;67.50
47726;BME280;33483;48.294;16.388;2023-08-31T07:08:08;99222.91;;;22.97;64.95
47726;BME280;33483;48.294;16.388;2023-08-31T07:10:36;99231.56;;;24.03;57.43
47726;BME280;33483;48.294;16.388;2023-08-31T07:13:06;99239.50;;;24.47;55.68
47726;BME280;33483;48.294;16.388;2023-08-31T07:15:33;99244.25;;;26.06;49.61
47726;BME280;33483;48.294;16.388;2023-08-31T07:18:00;99245.34;;;27.34;45.41
47726;BME280;33483;48.294;16.388;2023-08-31T07:20:30;99259.22;;;27.98;45.26
47726;BME280;33483;48.294;16.388;2023-08-31T07:22:57;99256.16;;;26.51;46.62
47726;BME280;33483;48.294;16.388;2023-08-31T07:25:24;99253.84;;;24.65;51.51
47726;BME280;33483;48.294;16.388;2023-08-31T07:27:51;99255.13;;;23.42;55.18
47726;BME280;33483;48.294;16.388;2023-08-31T07:30:19;99252.69;;;26.04;48.91
47726;BME280;33483;48.294;16.388;2023-08-31T07:32:46;99266.66;;;27.33;46.10
47726;BME280;33483;48.294;16.388;2023-08-31T07:35:14;99273.41;;;27.79;44.67
47726;BME280;33483;48.294;16.388;2023-08-31T07:37:41;99273.34;;;27.77;44.36
47726;BME280;33483;48.294;16.388;2023-08-31T07:40:08;99278.81;;;27.90;42.78
47726;BME280;33483;48.294;16.388;2023-08-31T07:42:37;99279.22;;;28.00;42.97
47726;BME280;33483;48.294;16.388;2023-08-31T07:45:04;99279.16;;;27.98;43.75
47726;BME280;33483;48.294;16.388;2023-08-31T07:47:32;99288.66;;;28.05;42.70
47726;BME280;33483;48.294;16.388;2023-08-31T07:50:01;99288.13;;;28.30;42.02
47726;BME280;33483;48.294;16.388;2023-08-31T07:52:29;99292.22;;;28.44;41.49
47726;BME280;33483;48.294;16.388;2023-08-31T07:54:58;99280.47;;;27.77;42.07
47726;BME280;33483;48.294;16.388;2023-08-31T07:57:25;99284.44;;;27.68;42.68
47726;BME280;33483;48.294;16.388;2023-08-31T07:59:54;99281.16;;;27.39;43.44
47726;BME280;33483;48.294;16.388;2023-08-31T08:02:22;99288.25;;;27.05;44.46
47726;BME280;33483;48.294;16.388;2023-08-31T08:04:49;99282.59;;;27.40;43.51
47726;BME280;33483;48.294;16.388;2023-08-31T08:07:19;99296.78;;;28.12;42.94
47726;BME280;33483;48.294;16.388;2023-08-31T08:09:46;99291.50;;;27.67;42.93
47726;BME280;33483;48.294;16.388;2023-08-31T08:12:15;99310.34;;;28.33;41.08
47726;BME280;33483;48.294;16.388;2023-08-31T08:14:42;99304.34;;;28.45;40.97
47726;BME280;33483;48.294;16.388;2023-08-31T08:17:09;99310.97;;;28.91;39.94
47726;BME280;33483;48.294;16.388;2023-08-31T08:19:36;99308.34;;;28.77;39.60
47726;BME280;33483;48.294;16.388;2023-08-31T08:22:03;99306.50;;;28.86;40.06
47726;BME280;33483;48.294;16.388;2023-08-31T08:24:31;99312.03;;;28.40;40.26
47726;BME280;33483;48.294;16.388;2023-08-31T08:26:58;99320.28;;;29.13;39.90
47726;BME280;33483;48.294;16.388;2023-08-31T08:29:28;99316.38;;;28.83;39.44
47726;BME280;33483;48.294;16.388;2023-08-31T08:31:55;99316.56;;;28.67;39.80
47726;BME280;33483;48.294;16.388;2023-08-31T08:34:22;99316.28;;;28.39;41.08
47726;BME280;33483;48.294;16.388;2023-08-31T08:36:49;99324.59;;;29.35;40.37
47726;BME280;33483;48.294;16.388;2023-08-31T08:39:16;99321.28;;;29.66;38.36
47726;BME280;33483;48.294;16.388;2023-08-31T08:41:44;99319.84;;;29.89;39.09
47726;BME280;33483;48.294;16.388;2023-08-31T08:44:11;99323.75;;;29.54;38.81
47726;BME280;33483;48.294;16.388;2023-08-31T08:46:42;99324.44;;;29.31;38.93
47726;BME280;33483;48.294;16.388;2023-08-31T08:49:13;99326.91;;;28.98;39.21
47726;BME280;33483;48.294;16.388;2023-08-31T08:51:43;99330.13;;;28.88;39.56
47726;BME280;33483;48.294;16.388;2023-08-31T08:54:10;99321.81;;;28.35;40.17
47726;BME280;33483;48.294;16.388;2023-08-31T08:56:38;99329.72;;;28.76;39.96
47726;BME280;33483;48.294;16.388;2023-08-31T08:59:07;99330.97;;;28.93;39.48
47726;BME280;33483;48.294;16.388;2023-08-31T09:01:40;99330.97;;;28.93;39.12
47726;BME280;33483;48.294;16.388;2023-08-31T09:04:09;99333.06;;;27.92;40.34
47726;BME280;33483;48.294;16.388;2023-08-31T09:06:36;99344.91;;;28.04;40.68
47726;BME280;33483;48.294;16.388;2023-08-31T09:09:06;99339.91;;;27.67;41.29
47726;BME280;33483;48.294;16.388;2023-08-31T09:11:35;99333.91;;;27.42;41.53
47726;BME280;33483;48.294;16.388;2023-08-31T09:16:46;99338.28;;;26.77;43.06
47726;BME280;33483;48.294;16.388;2023-08-31T09:19:23;99337.00;;;28.03;41.12
47726;BME280;33483;48.294;16.388;2023-08-31T09:21:51;99339.00;;;28.37;40.63
47726;BME280;33483;48.294;16.388;2023-08-31T09:24:18;99348.81;;;28.32;40.28
47726;BME280;33483;48.294;16.388;2023-08-31T09:26:50;99338.13;;;28.13;41.16
47726;BME280;33483;48.294;16.388;2023-08-31T09:29:20;99342.34;;;27.93;41.20
47726;BME280;33483;48.294;16.388;2023-08-31T09:31:48;99344.97;;;27.34;41.49
47726;BME280;33483;48.294;16.388;2023-08-31T09:34:18;99346.94;;;26.96;42.93
47726;BME280;33483;48.294;16.388;2023-08-31T09:36:46;99348.53;;;26.19;44.36
47726;BME280;33483;48.294;16.388;2023-08-31T09:39:13;99354.09;;;24.85;47.25
47726;BME280;33483;48.294;16.388;2023-08-31T09:41:53;99344.75;;;23.90;49.40
47726;BME280;33483;48.294;16.388;2023-08-31T09:44:21;99345.19;;;23.34;52.05
47726;BME280;33483;48.294;16.388;2023-08-31T09:46:49;99337.66;;;23.02;53.39
47726;BME280;33483;48.294;16.388;2023-08-31T09:49:16;99341.22;;;22.66;54.39
47726;BME280;33483;48.294;16.388;2023-08-31T09:51:44;99349.53;;;22.41;56.02
47726;BME280;33483;48.294;16.388;2023-08-31T09:54:13;99339.75;;;22.18;59.53
47726;BME280;33483;48.294;16.388;2023-08-31T09:56:43;99344.03;;;22.43;57.01
47726;BME280;33483;48.294;16.388;2023-08-31T09:59:14;99323.81;;;22.94;54.64
47726;BME280;33483;48.294;16.388;2023-08-31T10:01:41;99345.94;;;22.86;54.41
47726;BME280;33483;48.294;16.388;2023-08-31T10:04:09;99339.25;;;23.05;53.67
47726;BME280;33483;48.294;16.388;2023-08-31T10:06:38;99361.19;;;24.05;50.61
47726;BME280;33483;48.294;16.388;2023-08-31T10:09:06;99357.53;;;24.29;48.89
47726;BME280;33483;48.294;16.388;2023-08-31T10:11:33;99365.13;;;24.79;48.51
47726;BME280;33483;48.294;16.388;2023-08-31T10:14:00;99360.16;;;25.65;47.24
47726;BME280;33483;48.294;16.388;2023-08-31T10:16:28;99379.25;;;25.78;46.75
47726;BME280;33483;48.294;16.388;2023-08-31T10:18:56;99367.19;;;24.11;49.50
47726;BME280;33483;48.294;16.388;2023-08-31T10:21:23;99371.47;;;24.12;49.48
47726;BME280;33483;48.294;16.388;2023-08-31T10:23:53;99373.28;;;24.32;50.13
47726;BME280;33483;48.294;16.388;2023-08-31T10:26:29;99366.44;;;24.37;50.42
47726;BME280;33483;48.294;16.388;2023-08-31T10:28:59;99373.38;;;24.21;49.62
47726;BME280;33483;48.294;16.388;2023-08-31T10:31:29;99373.56;;;24.11;49.33
47726;BME280;33483;48.294;16.388;2023-08-31T10:33:59;99379.66;;;24.19;49.15
47726;BME280;33483;48.294;16.388;2023-08-31T10:41:40;99387.13;;;25.08;47.34
47726;BME280;33483;48.294;16.388;2023-08-31T10:44:30;99379.56;;;24.99;46.39
47726;BME280;33483;48.294;16.388;2023-08-31T10:46:55;99379.59;;;24.58;45.37
47726;BME280;33483;48.294;16.388;2023-08-31T10:49:26;99392.63;;;24.77;44.31
47726;BME280;33483;48.294;16.388;2023-08-31T10:51:54;99384.44;;;24.69;43.95
47726;BME280;33483;48.294;16.388;2023-08-31T10:54:23;99381.06;;;24.86;45.45
47726;BME280;33483;48.294;16.388;2023-08-31T10:59:44;99379.72;;;24.74;46.17
47726;BME280;33483;48.294;16.388;2023-08-31T11:05:06;99381.47;;;25.08;43.71
47726;BME280;33483;48.294;16.388;2023-08-31T11:07:34;99382.53;;;25.01;44.74
47726;BME280;33483;48.294;16.388;2023-08-31T11:12:55;99381.78;;;25.72;45.06
47726;BME280;33483;48.294;16.388;2023-08-31T11:15:25;99389.28;;;25.66;41.91
47726;BME280;33483;48.294;16.388;2023-08-31T11:17:57;99383.47;;;25.05;41.63
47726;BME280;33483;48.294;16.388;2023-08-31T11:20:30;99375.63;;;25.33;42.56
47726;BME280;33483;48.294;16.388;2023-08-31T11:22:58;99388.63;;;24.95;42.52
47726;BME280;33483;48.294;16.388;2023-08-31T11:25:29;99378.63;;;25.08;43.99
47726;BME280;33483;48.294;16.388;2023-08-31T11:27:58;99392.06;;;25.21;43.46
47726;BME280;33483;48.294;16.388;2023-08-31T11:30:26;99388.78;;;25.13;42.77
47726;BME280;33483;48.294;16.388;2023-08-31T11:32:56;99391.25;;;24.78;43.69
47726;BME280;33483;48.294;16.388;2023-08-31T11:35:23;99381.16;;;24.47;44.25
47726;BME280;33483;48.294;16.388;2023-08-31T11:37:56;99387.72;;;24.77;44.03
47726;BME280;33483;48.294;16.388;2023-08-31T11:40:25;99397.97;;;24.98;43.83
47726;BME280;33483;48.294;16.388;2023-08-31T11:42:52;99395.25;;;25.00;42.99
47726;BME280;33483;48.294;16.388;2023-08-31T11:45:20;99395.03;;;24.96;41.73
47726;BME280;33483;48.294;16.388;2023-08-31T11:47:49;99396.84;;;24.76;42.73
47726;BME280;33483;48.294;16.388;2023-08-31T11:50:17;99402.78;;;24.68;42.64
47726;BME280;33483;48.294;16.388;2023-08-31T11:52:46;99401.69;;;25.16;43.91
47726;BME280;33483;48.294;16.388;2023-08-31T11:55:16;99393.19;;;25.29;45.85
47726;BME280;33483;48.294;16.388;2023-08-31T11:57:51;99412.34;;;24.88;42.84
47726;BME280;33483;48.294;16.388;2023-08-31T12:00:19;99400.72;;;24.82;42.52
47726;BME280;33483;48.294;16.388;2023-08-31T12:03:00;99401.69;;;25.16;43.51
47726;BME280;33483;48.294;16.388;2023-08-31T12:05:29;99406.13;;;25.19;43.08
47726;BME280;33483;48.294;16.388;2023-08-31T12:08:10;99407.22;;;24.71;42.63
47726;BME280;33483;48.294;16.388;2023-08-31T12:10:41;99419.25;;;24.44;42.86
47726;BME280;33483;48.294;16.388;2023-08-31T12:13:08;99412.16;;;24.71;42.79
47726;BME280;33483;48.294;16.388;2023-08-31T12:15:37;99411.59;;;24.61;42.90
47726;BME280;33483;48.294;16.388;2023-08-31T12:20:41;99416.03;;;24.11;44.03
47726;BME280;33483;48.294;16.388;2023-08-31T12:23:11;99419.69;;;24.00;45.90
47726;BME280;33483;48.294;16.388;2023-08-31T12:25:59;99417.53;;;24.26;46.21
47726;BME280;33483;48.294;16.388;2023-08-31T12:28:26;99417.66;;;24.28;44.82
47726;BME280;33483;48.294;16.388;2023-08-31T12:30:56;99411.59;;;24.33;45.38
47726;BME280;33483;48.294;16.388;2023-08-31T12:33:23;99420.34;;;24.12;43.96
47726;BME280;33483;48.294;16.388;2023-08-31T12:35:51;99425.53;;;24.57;44.18
47726;BME280;33483;48.294;16.388;2023-08-31T12:38:21;99427.44;;;24.38;43.06
47726;BME280;33483;48.294;16.388;2023-08-31T12:40:51;99417.66;;;24.41;45.04
47726;BME280;33483;48.294;16.388;2023-08-31T12:43:18;99420.09;;;24.33;45.26
47726;BME280;33483;48.294;16.388;2023-08-31T12:45:46;99423.03;;;24.35;43.63
47726;BME280;33483;48.294;16.388;2023-08-31T12:48:13;99412.78;;;24.17;45.08
47726;BME280;33483;48.294;16.388;2023-08-31T12:50:43;99404.03;;;23.99;43.59
47726;BME280;33483;48.294;16.388;2023-08-31T12:53:12;99410.28;;;24.09;43.94
47726;BME280;33483;48.294;16.388;2023-08-31T12:55:40;99406.06;;;24.10;44.15
47726;BME280;33483;48.294;16.388;2023-08-31T12:58:07;99416.72;;;24.37;44.30
47726;BME280;33483;48.294;16.388;2023-08-31T13:00:38;99413.25;;;24.38;43.61
47726;BME280;33483;48.294;16.388;2023-08-31T13:03:06;99413.16;;;24.36;43.02
47726;BME280;33483;48.294;16.388;2023-08-31T13:05:39;99421.94;;;24.29;43.72
47726;BME280;33483;48.294;16.388;2023-08-31T13:08:07;99421.56;;;24.48;45.97
47726;BME280;33483;48.294;16.388;2023-08-31T13:10:34;99414.53;;;24.49;44.92
47726;BME280;33483;48.294;16.388;2023-08-31T13:13:02;99427.09;;;24.32;43.23
47726;BME280;33483;48.294;16.388;2023-08-31T13:15:31;99432.56;;;24.28;44.14
47726;BME280;33483;48.294;16.388;2023-08-31T13:17:58;99426.97;;;24.17;43.89